Time;durP1;ratioP1;P1;durP2;ratioP2;P2;SDS_P1;SDS_P2;PMS_P1;PMS_P2;Temp;Humidity;BMP_temperature;BMP_pressure;BME280_temperature;BME280_humidity;BME280_pressure;Samples;Min_cycle;Max_cycle;Signal;HPM_P1;HPM_P2
2022/05/07 00:00:34;;;;;;;4.23;3.47;;;18.00;37.10;;;;;;5054315;28;20546;-34
2022/05/07 00:03:01;;;;;;;3.80;3.00;;;18.00;36.60;;;;;;5054107;28;20770;-34
2022/05/07 00:05:26;;;;;;;5.25;3.92;;;18.10;36.70;;;;;;5054358;28;20200;-34
2022/05/07 00:07:53;;;;;;;4.93;3.77;;;18.00;37.10;;;;;;5054547;28;20176;-34
2022/05/07 00:10:19;;;;;;;5.50;4.50;;;18.00;36.80;;;;;;5054297;28;20291;-34
2022/05/07 00:12:45;;;;;;;7.97;4.28;;;17.90;37.30;;;;;;5054262;28;20177;-34
2022/05/07 00:15:11;;;;;;;6.33;4.93;;;17.90;37.30;;;;;;5054206;28;20200;-34
2022/05/07 00:20:21;;;;;;;6.35;5.13;;;17.90;36.90;;;;;;5054500;28;20307;-34
2022/05/07 00:22:47;;;;;;;5.60;4.43;;;17.90;37.00;;;;;;5054150;28;20264;-34
2022/05/07 00:25:13;;;;;;;6.63;4.90;;;17.90;37.00;;;;;;5054192;28;20197;-34
2022/05/07 00:27:39;;;;;;;6.07;4.37;;;17.80;36.90;;;;;;5054063;28;20677;-34
2022/05/07 00:30:06;;;;;;;5.03;4.30;;;17.80;36.90;;;;;;5054116;28;20463;-34
2022/05/07 00:32:32;;;;;;;7.10;3.95;;;17.80;36.90;;;;;;5053965;28;20201;-34
2022/05/07 00:34:58;;;;;;;4.60;3.72;;;17.80;37.00;;;;;;5053895;28;20170;-34
2022/05/07 00:37:23;;;;;;;8.23;4.40;;;17.70;37.40;;;;;;5053974;28;20169;-34
2022/05/07 00:39:50;;;;;;;5.13;4.63;;;17.70;37.30;;;;;;5054034;28;20484;-34
2022/05/07 00:42:16;;;;;;;5.18;4.68;;;17.70;37.10;;;;;;5053642;28;20177;-34
2022/05/07 00:44:42;;;;;;;6.38;4.90;;;17.70;37.00;;;;;;5053706;28;20227;-34
2022/05/07 00:47:28;;;;;;;7.82;4.63;;;17.60;37.00;;;;;;5053851;28;20537;-34
2022/05/07 00:51:33;;;;;;;6.15;4.25;;;17.60;37.40;;;;;;5053715;28;20274;-34
2022/05/07 00:52:41;;;;;;;4.68;4.07;;;17.50;37.10;;;;;;5053375;28;20510;-34
2022/05/07 00:55:10;;;;;;;5.83;4.57;;;17.50;37.00;;;;;;5053715;28;20200;-34
2022/05/07 00:57:36;;;;;;;6.65;3.75;;;17.50;37.00;;;;;;5053495;28;20911;-34
2022/05/07 01:00:03;;;;;;;6.13;3.97;;;17.50;37.10;;;;;;5053596;28;20268;-34
2022/05/07 01:02:28;;;;;;;5.90;5.30;;;17.40;37.30;;;;;;5053097;28;20261;-34
2022/05/07 01:04:54;;;;;;;6.13;4.30;;;17.40;37.20;;;;;;5053280;28;20276;-34
2022/05/07 01:07:20;;;;;;;4.53;4.03;;;17.40;37.10;;;;;;5053152;28;20411;-34
2022/05/07 01:09:47;;;;;;;4.20;3.80;;;17.30;37.20;;;;;;5053227;28;20462;-34
2022/05/07 01:12:14;;;;;;;4.15;3.78;;;17.30;37.10;;;;;;5053023;28;20215;-34
2022/05/07 01:14:40;;;;;;;5.82;4.03;;;17.20;36.80;;;;;;5052389;28;20181;-34
2022/05/07 01:17:07;;;;;;;6.07;4.30;;;17.20;37.00;;;;;;5052803;28;20178;-34
2022/05/07 01:19:32;;;;;;;4.43;3.85;;;17.20;37.00;;;;;;5053101;28;20169;-34
2022/05/07 01:21:58;;;;;;;4.23;3.80;;;17.20;36.70;;;;;;5052784;28;20259;-34
2022/05/07 01:24:23;;;;;;;5.47;3.57;;;17.10;37.00;;;;;;5053193;28;20169;-34
2022/05/07 01:26:49;;;;;;;4.07;3.67;;;17.10;36.80;;;;;;5053070;28;20203;-34
2022/05/07 01:29:15;;;;;;;4.30;3.00;;;17.00;36.90;;;;;;5052846;28;20197;-34
2022/05/07 01:31:41;;;;;;;3.80;3.47;;;16.90;36.70;;;;;;5052601;28;20170;-34
2022/05/07 01:34:07;;;;;;;6.80;3.60;;;16.90;36.70;;;;;;5052889;28;20268;-34
2022/05/07 01:36:32;;;;;;;5.60;4.40;;;16.80;36.80;;;;;;5052495;28;20243;-34
2022/05/07 01:38:58;;;;;;;3.80;3.27;;;16.80;36.90;;;;;;5052724;28;20415;-34
2022/05/07 01:41:23;;;;;;;5.90;4.13;;;16.70;37.10;;;;;;5052450;28;20171;-34
2022/05/07 01:43:49;;;;;;;4.63;3.33;;;16.70;37.00;;;;;;5052790;28;20260;-33
2022/05/07 01:49:00;;;;;;;4.20;3.80;;;16.60;36.80;;;;;;5052666;28;20207;-34
2022/05/07 01:51:25;;;;;;;8.63;4.97;;;16.50;37.30;;;;;;5052537;28;20169;-34
2022/05/07 01:53:51;;;;;;;4.63;4.10;;;16.50;36.70;;;;;;5052611;28;20246;-34
2022/05/07 01:56:17;;;;;;;4.00;3.50;;;16.40;36.80;;;;;;5052392;28;20199;-34
2022/05/07 01:58:42;;;;;;;5.40;4.37;;;16.40;37.00;;;;;;5052480;28;20215;-34
2022/05/07 02:01:10;;;;;;;5.93;4.03;;;16.40;36.80;;;;;;5052223;28;20253;-34
2022/05/07 02:03:37;;;;;;;5.90;3.30;;;16.40;37.00;;;;;;5052181;28;20276;-34
2022/05/07 02:06:03;;;;;;;5.10;3.40;;;16.30;37.40;;;;;;5052459;28;20215;-34
2022/05/07 02:08:28;;;;;;;4.20;3.40;;;16.30;37.40;;;;;;5052254;28;20681;-34
2022/05/07 02:10:54;;;;;;;4.80;3.90;;;16.20;37.40;;;;;;5051983;28;20184;-34
2022/05/07 02:13:20;;;;;;;5.47;3.33;;;16.20;37.80;;;;;;5074255;22;20327;-31
2022/05/07 02:15:45;;;;;;;5.20;3.10;;;16.10;38.00;;;;;;5072166;28;20218;-31
2022/05/07 02:18:11;;;;;;;6.70;2.97;;;16.10;37.80;;;;;;5072614;28;20180;-31
2022/05/07 02:20:37;;;;;;;3.57;2.97;;;16.00;38.00;;;;;;5071892;28;20200;-31
2022/05/07 02:23:02;;;;;;;6.03;3.67;;;15.90;38.10;;;;;;5072116;28;20601;-31
2022/05/07 02:25:28;;;;;;;4.97;3.90;;;15.90;38.40;;;;;;5072156;28;20631;-31
2022/05/07 02:27:53;;;;;;;5.00;3.60;;;15.80;38.00;;;;;;5071871;28;20172;-31
2022/05/07 02:30:19;;;;;;;4.13;3.40;;;15.80;38.10;;;;;;5071932;28;20587;-31
2022/05/07 02:32:47;;;;;;;4.63;4.00;;;15.70;38.20;;;;;;5071889;28;20475;-31
2022/05/07 02:35:13;;;;;;;3.38;3.00;;;15.70;38.40;;;;;;5071914;28;20890;-31
2022/05/07 02:37:38;;;;;;;4.13;3.33;;;15.60;38.30;;;;;;5072108;28;20531;-31
2022/05/07 02:40:05;;;;;;;3.93;3.10;;;15.60;38.30;;;;;;5071962;28;20176;-31
2022/05/07 02:42:33;;;;;;;3.95;3.42;;;15.60;38.70;;;;;;5071830;28;20563;-31
2022/05/07 02:45:01;;;;;;;6.35;4.47;;;15.50;38.70;;;;;;5071841;28;20528;-31
2022/05/07 02:47:28;;;;;;;4.45;3.65;;;15.50;38.90;;;;;;5071855;28;20181;-31
2022/05/07 02:49:54;;;;;;;4.63;3.58;;;15.40;38.80;;;;;;5071844;28;20704;-31
2022/05/07 02:52:19;;;;;;;5.63;4.57;;;15.40;38.70;;;;;;5053601;28;20165;-31
2022/05/07 02:54:45;;;;;;;5.07;3.60;;;15.30;38.80;;;;;;5071866;28;20249;-31
2022/05/07 02:57:11;;;;;;;4.97;3.50;;;15.30;39.00;;;;;;5071821;28;20161;-31
2022/05/07 02:59:38;;;;;;;5.45;4.60;;;15.30;38.70;;;;;;5071633;28;20165;-31
2022/05/07 03:02:04;;;;;;;3.72;3.15;;;15.20;38.70;;;;;;5071545;28;20176;-31
2022/05/07 03:04:30;;;;;;;5.68;3.67;;;15.20;38.90;;;;;;5071650;28;20194;-31
2022/05/07 03:06:56;;;;;;;4.10;3.70;;;15.20;38.90;;;;;;5071950;28;20521;-31
2022/05/07 03:09:21;;;;;;;4.03;3.47;;;15.10;39.10;;;;;;5071621;28;20469;-31
2022/05/07 03:11:47;;;;;;;3.60;2.77;;;15.10;39.10;;;;;;5071843;28;20264;-31
2022/05/07 03:14:13;;;;;;;3.87;2.63;;;15.10;39.10;;;;;;5071474;28;20230;-31
2022/05/07 03:16:38;;;;;;;6.80;3.10;;;15.00;39.30;;;;;;5071574;28;20176;-31
2022/05/07 03:19:05;;;;;;;4.73;3.40;;;15.00;39.30;;;;;;5071520;28;20173;-31
2022/05/07 03:21:31;;;;;;;4.97;3.35;;;15.00;39.20;;;;;;5071331;28;20193;-31
2022/05/07 03:23:57;;;;;;;6.93;3.90;;;14.90;39.30;;;;;;5071550;28;20270;-31
2022/05/07 03:26:23;;;;;;;7.30;4.00;;;14.90;39.40;;;;;;5071568;28;20410;-31
2022/05/07 03:28:49;;;;;;;4.70;3.13;;;14.90;39.60;;;;;;5071392;28;20696;-31
2022/05/07 03:31:15;;;;;;;4.30;3.90;;;14.80;39.50;;;;;;5071250;28;20402;-31
2022/05/07 03:33:41;;;;;;;5.55;3.65;;;14.80;40.30;;;;;;5071260;28;20590;-31
2022/05/07 03:36:07;;;;;;;5.00;3.77;;;14.80;39.80;;;;;;5071359;28;20179;-31
2022/05/07 03:38:32;;;;;;;3.73;3.40;;;14.70;39.80;;;;;;5072403;28;20164;-31
2022/05/07 03:40:59;;;;;;;4.33;3.77;;;14.70;39.70;;;;;;5074878;28;20405;-31
2022/05/07 03:43:24;;;;;;;4.53;4.00;;;14.70;39.90;;;;;;5074845;28;20185;-31
2022/05/07 03:45:50;;;;;;;5.73;4.03;;;14.70;39.90;;;;;;5074927;28;20176;-31
2022/05/07 03:48:17;;;;;;;8.10;3.93;;;14.70;40.00;;;;;;5074753;28;20157;-31
2022/05/07 03:50:42;;;;;;;3.88;3.47;;;14.60;40.00;;;;;;5074713;28;20458;-31
2022/05/07 03:55:52;;;;;;;5.60;3.80;;;14.60;39.80;;;;;;5074735;28;20176;-31
2022/05/07 03:58:18;;;;;;;4.10;3.70;;;14.50;39.80;;;;;;5074691;28;20173;-31
2022/05/07 04:00:44;;;;;;;4.47;3.70;;;14.50;39.90;;;;;;5074340;28;20556;-31
2022/05/07 04:03:13;;;;;;;4.63;3.85;;;14.50;39.90;;;;;;5073207;28;20279;-31
2022/05/07 04:05:39;;;;;;;4.82;4.30;;;14.50;40.10;;;;;;5074572;28;20193;-31
2022/05/07 04:08:06;;;;;;;5.30;4.80;;;14.50;39.90;;;;;;5074528;28;20207;-31
2022/05/07 04:10:31;;;;;;;5.47;3.90;;;14.60;39.80;;;;;;5074229;28;20654;-31
2022/05/07 04:12:57;;;;;;;5.23;4.30;;;14.60;39.90;;;;;;5074180;28;20243;-31
2022/05/07 04:15:23;;;;;;;5.20;4.30;;;14.60;39.50;;;;;;5074296;28;20415;-31
2022/05/07 04:17:49;;;;;;;5.43;4.37;;;14.60;39.80;;;;;;5074519;28;20173;-31
2022/05/07 04:20:16;;;;;;;5.93;3.17;;;14.70;39.90;;;;;;5074239;28;20414;-31
2022/05/07 04:22:42;;;;;;;5.95;4.40;;;14.70;39.70;;;;;;5074215;28;20290;-31
2022/05/07 04:25:09;;;;;;;6.63;4.20;;;14.80;39.60;;;;;;5074239;28;20176;-31
2022/05/07 04:27:35;;;;;;;5.20;4.55;;;14.90;39.60;;;;;;5074105;28;20177;-31
2022/05/07 04:30:01;;;;;;;5.40;4.47;;;14.90;39.80;;;;;;5073924;28;20195;-31
2022/05/07 04:32:28;;;;;;;5.33;4.37;;;15.00;39.40;;;;;;5073834;28;20441;-31
2022/05/07 04:34:57;;;;;;;5.13;4.15;;;15.00;39.30;;;;;;5074000;28;20403;-31
2022/05/07 04:37:24;;;;;;;4.78;3.78;;;15.10;39.30;;;;;;5073970;28;20654;-31
2022/05/07 04:39:50;;;;;;;4.28;2.92;;;15.10;39.20;;;;;;5073851;28;20697;-31
2022/05/07 04:42:17;;;;;;;5.13;3.83;;;15.20;39.30;;;;;;5073478;28;20174;-31
2022/05/07 04:44:43;;;;;;;7.00;4.90;;;15.20;39.20;;;;;;5073754;28;20173;-31
2022/05/07 04:47:09;;;;;;;4.47;4.07;;;15.30;39.30;;;;;;5073711;28;20168;-31
2022/05/07 04:49:36;;;;;;;5.13;4.20;;;15.30;39.20;;;;;;5073733;28;20202;-31
2022/05/07 04:52:05;;;;;;;7.93;4.80;;;15.40;39.10;;;;;;5073562;28;20540;-31
2022/05/07 04:54:32;;;;;;;4.00;3.60;;;15.50;39.00;;;;;;5073687;28;20242;-31
2022/05/07 04:56:58;;;;;;;4.78;4.22;;;15.60;38.90;;;;;;5073441;28;20169;-31
2022/05/07 04:59:24;;;;;;;5.80;4.28;;;15.60;38.70;;;;;;5073477;28;20767;-31
2022/05/07 05:01:50;;;;;;;5.80;4.40;;;15.70;38.60;;;;;;5073414;28;20221;-31
2022/05/07 05:04:16;;;;;;;5.75;3.95;;;15.70;38.60;;;;;;5073488;28;20532;-31
2022/05/07 05:06:42;;;;;;;17.52;4.53;;;15.80;38.60;;;;;;5073371;28;20179;-31
2022/05/07 05:09:08;;;;;;;4.90;4.13;;;15.90;38.50;;;;;;5073213;28;20782;-31
2022/05/07 05:11:35;;;;;;;4.77;4.20;;;15.90;38.30;;;;;;5072952;28;20247;-31
2022/05/07 05:14:01;;;;;;;7.07;4.90;;;16.00;38.40;;;;;;5073784;28;20451;-31
2022/05/07 05:16:27;;;;;;;6.17;5.30;;;16.10;38.40;;;;;;5074211;28;20171;-31
2022/05/07 05:18:53;;;;;;;4.85;4.40;;;16.20;38.20;;;;;;5074152;28;20414;-31
2022/05/07 05:21:19;;;;;;;10.57;5.03;;;16.20;38.10;;;;;;5073570;28;20212;-31
2022/05/07 05:23:48;;;;;;;6.00;4.30;;;16.40;38.00;;;;;;5072977;28;20222;-31
2022/05/07 05:26:14;;;;;;;7.70;5.43;;;16.40;37.90;;;;;;5072749;28;20411;-31
2022/05/07 05:28:40;;;;;;;6.03;4.25;;;16.50;37.70;;;;;;5072881;28;20644;-31
2022/05/07 05:31:06;;;;;;;3.65;3.35;;;16.40;37.80;;;;;;5072788;28;20201;-31
2022/05/07 05:33:32;;;;;;;4.43;3.85;;;16.40;37.60;;;;;;5072734;28;20283;-31
2022/05/07 05:35:58;;;;;;;5.63;3.72;;;16.40;37.80;;;;;;5072883;28;20759;-31
2022/05/07 05:38:24;;;;;;;6.00;4.13;;;16.40;37.60;;;;;;5072724;28;20161;-31
2022/05/07 05:40:50;;;;;;;7.80;5.00;;;16.40;37.70;;;;;;5072416;28;20407;-31
2022/05/07 05:43:17;;;;;;;4.43;3.80;;;16.40;37.50;;;;;;5072681;28;20238;-31
2022/05/07 05:45:43;;;;;;;5.07;3.22;;;16.40;37.80;;;;;;5072750;28;20517;-31
2022/05/07 05:48:09;;;;;;;5.55;4.00;;;16.40;37.80;;;;;;5072519;28;20218;-31
2022/05/07 05:50:35;;;;;;;5.30;4.03;;;16.60;37.90;;;;;;5072147;28;20204;-31
2022/05/07 05:53:01;;;;;;;3.80;3.50;;;16.80;37.90;;;;;;5072415;28;20414;-31
2022/05/07 05:55:27;;;;;;;4.67;3.90;;;16.90;37.70;;;;;;5072311;28;20187;-31
2022/05/07 05:57:53;;;;;;;4.93;4.07;;;17.10;37.20;;;;;;5072584;28;20175;-31
2022/05/07 06:00:19;;;;;;;3.47;3.17;;;17.20;37.20;;;;;;5054460;28;20314;-31
2022/05/07 06:02:45;;;;;;;4.07;2.95;;;17.30;37.20;;;;;;5071658;28;20203;-31
2022/05/07 06:05:12;;;;;;;3.63;3.03;;;17.30;36.90;;;;;;5072406;28;20180;-31
2022/05/07 06:07:38;;;;;;;5.35;4.10;;;17.40;36.90;;;;;;5072257;28;20429;-31
2022/05/07 06:10:04;;;;;;;4.93;4.05;;;17.50;36.90;;;;;;5071922;28;20237;-31
2022/05/07 06:12:30;;;;;;;3.78;3.35;;;17.70;36.80;;;;;;5072149;28;20272;-31
2022/05/07 06:14:56;;;;;;;4.28;3.45;;;17.80;36.70;;;;;;5072344;28;20168;-31
2022/05/07 06:17:22;;;;;;;4.33;3.57;;;17.90;36.20;;;;;;5072249;28;20697;-31
2022/05/07 06:19:48;;;;;;;5.57;4.47;;;17.90;36.30;;;;;;5072178;28;20493;-31
2022/05/07 06:22:14;;;;;;;4.18;3.08;;;18.10;36.00;;;;;;5072063;28;20223;-31
2022/05/07 06:27:33;;;;;;;5.47;3.28;;;18.30;36.00;;;;;;5072440;28;20433;-31
2022/05/07 06:30:03;;;;;;;4.30;3.80;;;18.40;35.70;;;;;;5072020;28;20203;-31
2022/05/07 06:32:35;;;;;;;4.63;3.67;;;18.50;35.60;;;;;;5072324;28;20215;-31
2022/05/07 06:35:06;;;;;;;4.78;3.67;;;18.50;35.20;;;;;;5071988;28;20172;-31
2022/05/07 06:37:32;;;;;;;3.83;3.22;;;18.50;35.00;;;;;;5072098;28;20207;-31
2022/05/07 06:39:58;;;;;;;4.82;3.15;;;18.50;35.20;;;;;;5071996;28;20169;-31
2022/05/07 06:42:24;;;;;;;7.63;3.67;;;18.60;35.20;;;;;;5071735;28;20175;-31
2022/05/07 06:44:50;;;;;;;4.20;3.22;;;18.70;35.40;;;;;;5070617;28;20651;-33
2022/05/07 06:47:16;;;;;;;4.13;2.83;;;18.80;35.10;;;;;;5071815;28;20221;-33
2022/05/07 06:49:45;;;;;;;7.73;4.37;;;19.00;35.30;;;;;;5072143;28;20208;-33
2022/05/07 06:52:12;;;;;;;6.43;3.88;;;19.20;35.30;;;;;;5072027;28;20169;-33
2022/05/07 06:54:37;;;;;;;4.90;3.25;;;19.40;35.20;;;;;;5053823;28;20521;-33
2022/05/07 06:57:04;;;;;;;4.80;3.90;;;19.50;34.80;;;;;;5071754;28;20172;-33
2022/05/07 06:59:30;;;;;;;3.78;3.45;;;19.60;34.40;;;;;;5071771;28;20244;-33
2022/05/07 07:01:57;;;;;;;4.82;3.92;;;19.70;34.40;;;;;;5070115;28;20509;-33
2022/05/07 07:04:24;;;;;;;5.10;3.22;;;19.80;34.40;;;;;;5071840;28;20204;-33
2022/05/07 07:06:50;;;;;;;3.70;2.92;;;19.90;34.80;;;;;;5071989;28;20183;-33
2022/05/07 07:09:16;;;;;;;5.33;3.67;;;20.10;34.70;;;;;;5071823;28;20196;-33
2022/05/07 07:11:42;;;;;;;4.18;3.40;;;20.30;33.70;;;;;;5071451;28;20452;-33
2022/05/07 07:14:08;;;;;;;4.43;3.60;;;20.20;32.90;;;;;;5073345;28;20657;-33
2022/05/07 07:16:33;;;;;;;3.63;2.97;;;20.30;33.50;;;;;;5075321;28;20403;-33
2022/05/07 07:18:59;;;;;;;4.93;3.10;;;20.30;34.00;;;;;;5075423;28;20172;-33
2022/05/07 07:21:25;;;;;;;4.63;3.10;;;20.40;34.00;;;;;;5075153;28;20169;-33
2022/05/07 07:23:51;;;;;;;4.72;3.38;;;20.70;34.00;;;;;;5075204;28;20180;-33
2022/05/07 07:26:17;;;;;;;4.10;3.40;;;20.80;33.20;;;;;;5075315;28;20188;-33
2022/05/07 07:28:43;;;;;;;5.38;3.40;;;21.00;33.40;;;;;;5075144;28;20173;-33
2022/05/07 07:31:10;;;;;;;4.57;3.50;;;21.10;32.70;;;;;;5056935;28;20169;-33
2022/05/07 07:33:38;;;;;;;6.05;2.50;;;21.20;32.30;;;;;;5075087;28;20599;-33
2022/05/07 07:36:05;;;;;;;3.90;2.70;;;21.30;32.60;;;;;;5075097;28;20172;-33
2022/05/07 07:38:31;;;;;;;3.53;3.15;;;21.50;33.00;;;;;;5075534;28;20165;-33
2022/05/07 07:40:56;;;;;;;3.40;2.63;;;21.60;33.10;;;;;;5074895;28;20556;-33
2022/05/07 07:43:22;;;;;;;13.40;3.90;;;21.90;33.30;;;;;;5074914;28;20191;-33
2022/05/07 07:48:32;;;;;;;9.70;2.67;;;22.30;32.20;;;;;;5075021;28;20219;-34
2022/05/07 07:50:58;;;;;;;3.70;3.00;;;22.50;32.40;;;;;;5074792;28;20407;-33
2022/05/07 07:53:24;;;;;;;4.53;2.90;;;22.70;32.10;;;;;;5074642;28;20656;-33
2022/05/07 07:55:51;;;;;;;4.30;2.90;;;22.80;31.90;;;;;;5074809;28;20196;-34
2022/05/07 07:58:17;;;;;;;3.70;3.10;;;22.90;30.20;;;;;;5074756;28;20399;-34
2022/05/07 08:00:44;;;;;;;3.93;2.70;;;23.00;31.10;;;;;;5074467;28;20497;-33
2022/05/07 08:03:12;;;;;;;3.20;2.37;;;23.10;29.40;;;;;;5074588;28;20522;-34
2022/05/07 08:05:38;;;;;;;7.83;2.70;;;23.00;26.60;;;;;;5074608;28;20475;-34
2022/05/07 08:13:39;;;;;;;3.07;2.30;;;23.20;28.70;;;;;;5074369;28;20984;-34
2022/05/07 08:16:09;;;;;;;4.27;3.33;;;23.30;28.90;;;;;;5074486;28;20477;-34
2022/05/07 08:18:36;;;;;;;5.50;2.67;;;23.40;28.30;;;;;;5074437;28;20407;-34
2022/05/07 08:21:03;;;;;;;4.30;2.90;;;23.50;28.30;;;;;;5073952;28;20410;-32
2022/05/07 08:23:28;;;;;;;4.30;2.67;;;23.70;28.80;;;;;;5074149;28;20961;-32
2022/05/07 08:25:54;;;;;;;2.70;2.40;;;23.90;28.80;;;;;;5073652;28;20411;-32
2022/05/07 08:28:21;;;;;;;4.33;2.70;;;24.20;29.00;;;;;;5074251;28;20247;-32
2022/05/07 08:30:49;;;;;;;2.60;1.90;;;24.40;29.50;;;;;;5073743;28;20452;-32
2022/05/07 08:33:19;;;;;;;2.40;1.60;;;24.60;29.20;;;;;;5073958;28;20443;-32
2022/05/07 08:35:45;;;;;;;2.40;1.70;;;24.90;28.70;;;;;;5073914;28;20402;-32
2022/05/07 08:38:11;;;;;;;3.43;2.20;;;24.90;26.20;;;;;;5073890;28;20486;-32
2022/05/07 08:40:40;;;;;;;6.83;1.90;;;24.90;24.90;;;;;;5073348;28;20505;-31
2022/05/07 08:43:06;;;;;;;2.77;1.87;;;24.60;23.60;;;;;;5073800;28;20431;-33
2022/05/07 08:45:32;;;;;;;3.37;2.00;;;24.60;26.20;;;;;;5074355;28;20407;-33
2022/05/07 08:47:59;;;;;;;2.00;1.30;;;24.70;26.10;;;;;;5073788;28;20494;-33
2022/05/07 08:50:26;;;;;;;2.87;1.50;;;24.90;24.50;;;;;;5073251;28;20442;-33
2022/05/07 08:52:55;;;;;;;2.50;1.60;;;25.00;24.70;;;;;;5073723;28;20451;-33
2022/05/07 08:55:21;;;;;;;2.87;1.77;;;25.00;24.80;;;;;;5073673;28;20457;-33
2022/05/07 08:57:49;;;;;;;2.50;1.50;;;25.10;23.00;;;;;;5073602;28;20762;-33
2022/05/07 09:00:17;;;;;;;1.90;1.40;;;25.10;22.30;;;;;;5073520;28;20845;-33
2022/05/07 09:02:45;;;;;;;2.70;1.33;;;25.00;22.90;;;;;;5073166;28;20423;-33
2022/05/07 09:05:13;;;;;;;2.53;1.33;;;25.00;21.80;;;;;;5073462;28;20961;-33
2022/05/07 09:07:41;;;;;;;3.63;1.37;;;25.00;23.40;;;;;;5073320;28;20399;-33
2022/05/07 09:10:13;;;;;;;2.57;1.60;;;24.90;22.20;;;;;;5073180;28;20507;-33
2022/05/07 09:12:39;;;;;;;1.80;1.20;;;24.80;21.90;;;;;;5072887;28;20776;-33
2022/05/07 09:15:07;;;;;;;2.43;1.70;;;24.80;20.80;;;;;;5073356;28;20879;-33
2022/05/07 09:17:33;;;;;;;4.03;1.50;;;24.70;21.20;;;;;;5073155;28;20439;-33
2022/05/07 09:20:13;;;;;;;2.27;1.23;;;24.50;22.20;;;;;;5073132;28;20437;-33
2022/05/07 09:22:49;;;;;;;1.90;1.20;;;24.40;22.00;;;;;;5073067;28;20778;-33
2022/05/07 09:25:30;;;;;;;3.77;2.30;;;24.30;20.20;;;;;;5073089;28;20415;-33
2022/05/07 09:27:56;;;;;;;1.93;1.10;;;24.30;20.50;;;;;;5074081;28;20758;-33
2022/05/07 09:30:27;;;;;;;2.77;2.07;;;24.40;22.10;;;;;;5074272;28;20488;-33
2022/05/07 09:32:55;;;;;;;2.10;1.47;;;24.70;19.60;;;;;;5074221;28;20467;-33
2022/05/07 09:35:48;;;;;;;2.90;1.00;;;24.80;20.70;;;;;;5073192;28;20399;-33
2022/05/07 09:38:15;;;;;;;2.13;1.53;;;25.10;22.00;;;;;;5072616;28;20418;-33
2022/05/07 09:40:44;;;;;;;1.90;1.00;;;25.50;21.80;;;;;;5072837;28;20423;-33
2022/05/07 09:43:11;;;;;;;1.80;0.90;;;25.90;22.50;;;;;;5072686;28;20921;-33
2022/05/07 09:45:39;;;;;;;2.90;1.63;;;26.20;19.00;;;;;;5072619;28;20904;-33
2022/05/07 09:48:06;;;;;;;4.83;1.10;;;26.40;20.50;;;;;;5072596;28;20402;-33
2022/05/07 09:58:34;;;;;;;4.40;2.17;;;27.20;20.30;;;;;;5072764;28;20448;-33
2022/05/07 10:01:21;;;;;;;1.90;1.20;;;27.20;18.70;;;;;;5072011;28;20422;-33
2022/05/07 10:04:06;;;;;;;3.17;1.33;;;27.10;18.00;;;;;;5072134;28;20279;-33
2022/05/07 10:06:46;;;;;;;1.97;1.20;;;27.00;17.70;;;;;;5072351;28;20410;-33
2022/05/07 10:09:30;;;;;;;2.97;1.67;;;27.00;18.20;;;;;;5072173;28;20521;-33
2022/05/07 10:11:57;;;;;;;2.90;1.37;;;27.20;19.50;;;;;;5072114;28;20403;-33
2022/05/07 10:14:30;;;;;;;1.60;1.03;;;27.50;19.00;;;;;;5072388;28;20442;-33
2022/05/07 10:17:08;;;;;;;1.70;1.00;;;27.80;19.50;;;;;;5072258;28;20399;-33
2022/05/07 10:19:42;;;;;;;4.77;1.80;;;28.10;20.30;;;;;;5072212;28;20403;-33
2022/05/07 10:22:24;;;;;;;2.83;1.50;;;28.20;20.00;;;;;;5071940;28;20402;-33
2022/05/07 10:25:12;;;;;;;2.20;1.70;;;28.10;19.90;;;;;;5072381;28;20449;-33
2022/05/07 10:27:43;;;;;;;8.83;1.87;;;28.00;20.10;;;;;;5072150;28;20415;-33
2022/05/07 10:30:13;;;;;;;2.57;1.53;;;27.80;20.50;;;;;;5071980;28;20802;-33
2022/05/07 10:33:01;;;;;;;1.90;1.20;;;27.70;21.30;;;;;;5071858;28;20422;-33
2022/05/07 10:35:44;;;;;;;2.60;1.30;;;27.50;21.50;;;;;;5072076;28;20767;-33
2022/05/07 10:38:26;;;;;;;5.40;1.90;;;27.30;21.70;;;;;;5072092;28;20395;-33
2022/05/07 10:41:01;;;;;;;3.00;1.50;;;27.10;21.90;;;;;;5054052;28;20906;-33
2022/05/07 10:43:35;;;;;;;2.27;1.10;;;26.90;21.50;;;;;;5071865;28;20430;-33
2022/05/07 10:46:06;;;;;;;2.20;1.27;;;26.80;22.20;;;;;;5072074;28;20407;-33
2022/05/07 10:48:45;;;;;;;5.30;1.40;;;26.70;22.20;;;;;;5074878;28;20402;-33
2022/05/07 10:51:33;;;;;;;2.13;1.23;;;26.60;22.20;;;;;;5075723;28;20407;-33
2022/05/07 10:54:03;;;;;;;2.00;1.20;;;26.50;22.50;;;;;;5075930;28;20954;-33
2022/05/07 10:56:33;;;;;;;2.50;1.67;;;26.50;22.70;;;;;;5075848;28;20399;-33
2022/05/07 10:59:00;;;;;;;1.77;1.20;;;26.60;22.80;;;;;;5074611;28;20413;-33
2022/05/07 11:01:27;;;;;;;2.03;1.13;;;26.80;23.10;;;;;;5075505;28;20407;-33
2022/05/07 11:04:04;;;;;;;2.93;1.03;;;27.20;23.10;;;;;;5075655;28;20484;-33
2022/05/07 11:06:43;;;;;;;2.17;1.70;;;27.50;22.80;;;;;;5075578;28;20398;-33
2022/05/07 11:09:19;;;;;;;2.37;1.50;;;27.70;22.70;;;;;;5075526;28;20810;-33
2022/05/07 11:11:47;;;;;;;2.43;1.10;;;28.00;21.50;;;;;;5075424;28;20422;-33
2022/05/07 11:14:28;;;;;;;2.40;1.37;;;28.10;22.30;;;;;;5075275;28;20451;-33
2022/05/07 11:16:58;;;;;;;1.80;1.27;;;28.40;22.50;;;;;;5075638;28;20399;-34
2022/05/07 11:19:26;;;;;;;3.07;1.90;;;28.60;21.80;;;;;;5075452;28;20502;-34
2022/05/07 11:21:55;;;;;;;2.60;1.23;;;28.70;19.40;;;;;;5075195;28;20410;-33
2022/05/07 11:24:21;;;;;;;3.20;1.47;;;28.70;17.90;;;;;;5075185;28;20430;-33
2022/05/07 11:26:56;;;;;;;2.77;1.70;;;28.50;19.10;;;;;;5075546;28;20449;-33
2022/05/07 11:29:22;;;;;;;3.33;1.60;;;28.50;20.40;;;;;;5075700;28;20453;-34
2022/05/07 11:31:58;;;;;;;2.17;1.43;;;28.70;20.70;;;;;;5074976;28;20442;-33
2022/05/07 11:34:28;;;;;;;2.67;1.60;;;29.00;19.80;;;;;;5075058;28;20921;-33
2022/05/07 11:36:54;;;;;;;4.37;1.20;;;29.10;20.20;;;;;;5075020;28;20406;-33
2022/05/07 11:39:21;;;;;;;2.17;1.57;;;29.40;19.60;;;;;;5057117;28;20426;-34
2022/05/07 11:41:54;;;;;;;3.33;1.73;;;29.60;19.80;;;;;;5056811;28;20223;-33
2022/05/07 11:47:23;;;;;;;2.10;1.63;;;30.00;20.50;;;;;;5075086;28;20456;-33
2022/05/07 11:50:10;;;;;;;3.27;1.57;;;29.90;18.10;;;;;;5074726;28;20956;-33
2022/05/07 11:52:36;;;;;;;3.70;1.60;;;29.60;18.20;;;;;;5074768;28;20426;-34
2022/05/07 11:55:05;;;;;;;2.30;1.13;;;29.30;19.50;;;;;;5074653;28;20476;-33
2022/05/07 11:57:33;;;;;;;1.80;1.07;;;29.00;19.90;;;;;;5074838;28;20160;-33
2022/05/07 12:00:31;;;;;;;2.10;1.33;;;28.70;19.80;;;;;;5055741;28;20415;-33
2022/05/07 12:03:01;;;;;;;1.93;1.40;;;28.50;19.80;;;;;;5040967;28;20434;-33
2022/05/07 12:05:39;;;;;;;2.70;1.53;;;28.30;20.60;;;;;;5074537;28;20431;-34
2022/05/07 12:08:16;;;;;;;2.83;1.37;;;28.10;21.20;;;;;;5074619;28;20402;-34
2022/05/07 12:10:42;;;;;;;2.13;1.27;;;27.90;21.10;;;;;;5074201;28;20961;-33
2022/05/07 12:13:10;;;;;;;2.10;1.60;;;27.80;20.80;;;;;;5074132;28;20443;-34
2022/05/07 12:18:22;;;;;;;1.70;1.10;;;27.50;21.10;;;;;;5074574;28;20826;-33
2022/05/07 12:20:48;;;;;;;2.10;1.00;;;27.50;21.30;;;;;;5074136;28;20494;-33
2022/05/07 12:31:27;;;;;;;3.40;1.40;;;27.50;20.20;;;;;;5073918;28;20453;-33
2022/05/07 12:33:53;;;;;;;1.70;0.93;;;27.80;21.00;;;;;;5074176;28;20772;-33
2022/05/07 12:36:19;;;;;;;2.40;1.20;;;28.10;21.00;;;;;;5074114;28;20971;-33
2022/05/07 12:38:45;;;;;;;4.00;1.60;;;28.20;21.20;;;;;;5074088;28;20165;-33
2022/05/07 12:41:10;;;;;;;1.77;1.00;;;28.20;21.30;;;;;;5073603;28;20414;-33
2022/05/07 12:43:36;;;;;;;4.27;1.70;;;28.20;20.10;;;;;;5073873;28;20216;-33
2022/05/07 12:46:02;;;;;;;1.80;1.13;;;28.10;20.80;;;;;;5073952;28;20463;-32
2022/05/07 12:48:28;;;;;;;3.60;1.20;;;27.90;20.30;;;;;;5073881;28;20164;-33
2022/05/07 12:50:54;;;;;;;1.63;0.90;;;27.70;18.50;;;;;;5073577;28;20521;-33
2022/05/07 12:53:20;;;;;;;2.03;1.40;;;27.40;19.00;;;;;;5073792;28;20624;-33
2022/05/07 12:55:47;;;;;;;2.73;1.63;;;27.30;20.20;;;;;;5073630;28;20403;-33
2022/05/07 12:58:13;;;;;;;2.87;1.30;;;27.30;20.90;;;;;;5073549;28;20430;-33
2022/05/07 13:00:40;;;;;;;2.37;1.00;;;27.30;21.40;;;;;;5073308;28;20427;-33
2022/05/07 13:03:09;;;;;;;2.07;1.03;;;27.20;20.30;;;;;;5073483;28;20790;-32
2022/05/07 13:05:36;;;;;;;2.07;1.27;;;27.20;20.70;;;;;;5073579;28;20406;-33
2022/05/07 13:08:06;;;;;;;2.43;0.90;;;27.20;21.00;;;;;;5073307;28;20419;-33
2022/05/07 13:10:33;;;;;;;3.80;1.30;;;27.20;20.80;;;;;;5072970;28;20451;-33
2022/05/07 13:12:59;;;;;;;3.00;1.50;;;27.20;19.90;;;;;;5074449;28;20446;-33
2022/05/07 13:15:29;;;;;;;2.17;1.33;;;27.10;20.50;;;;;;5073201;28;20410;-33
2022/05/07 13:18:02;;;;;;;2.57;1.40;;;27.10;20.50;;;;;;5073247;28;20967;-33
2022/05/07 13:20:28;;;;;;;1.80;1.00;;;27.10;21.20;;;;;;5073033;28;20913;-33
2022/05/07 13:22:55;;;;;;;2.27;1.50;;;27.10;21.10;;;;;;5073002;28;20425;-33
2022/05/07 13:25:25;;;;;;;2.10;1.20;;;27.10;21.00;;;;;;5072969;28;20498;-33
2022/05/07 13:27:51;;;;;;;2.20;1.40;;;27.00;20.90;;;;;;5073153;28;20399;-33
2022/05/07 13:30:17;;;;;;;2.20;1.40;;;27.00;21.40;;;;;;5072901;28;20450;-33